sensor_id;sensor_type;location;lat;lon;timestamp;temperature;humidity
23803;DHT22;12082;51.786;6.018;2023-08-12T00:00:19;19.90;99.90
23803;DHT22;12082;51.786;6.018;2023-08-12T00:02:45;19.90;99.90
23803;DHT22;12082;51.786;6.018;2023-08-12T00:05:12;20.00;99.90
23803;DHT22;12082;51.786;6.018;2023-08-12T00:07:39;19.90;99.90
23803;DHT22;12082;51.786;6.018;2023-08-12T00:10:07;19.90;99.90
23803;DHT22;12082;51.786;6.018;2023-08-12T00:12:34;19.90;99.90
23803;DHT22;12082;51.786;6.018;2023-08-12T00:15:01;19.90;99.90
23803;DHT22;12082;51.786;6.018;2023-08-12T00:17:27;20.00;99.90
23803;DHT22;12082;51.786;6.018;2023-08-12T00:19:52;20.10;99.90
23803;DHT22;12082;51.786;6.018;2023-08-12T00:22:18;20.00;99.90
23803;DHT22;12082;51.786;6.018;2023-08-12T00:24:43;20.00;99.90
23803;DHT22;12082;51.786;6.018;2023-08-12T00:27:10;20.00;99.90
23803;DHT22;12082;51.786;6.018;2023-08-12T00:29:35;19.90;99.90
23803;DHT22;12082;51.786;6.018;2023-08-12T00:32:01;19.90;99.90
23803;DHT22;12082;51.786;6.018;2023-08-12T00:34:27;19.80;99.90
23803;DHT22;12082;51.786;6.018;2023-08-12T00:36:53;19.80;99.90
23803;DHT22;12082;51.786;6.018;2023-08-12T00:39:18;19.80;99.90
23803;DHT22;12082;51.786;6.018;2023-08-12T00:41:44;19.80;99.90
23803;DHT22;12082;51.786;6.018;2023-08-12T00:44:10;19.80;99.90
23803;DHT22;12082;51.786;6.018;2023-08-12T00:46:37;19.80;99.90
23803;DHT22;12082;51.786;6.018;2023-08-12T00:49:04;19.80;99.90
23803;DHT22;12082;51.786;6.018;2023-08-12T00:51:30;19.80;99.90
23803;DHT22;12082;51.786;6.018;2023-08-12T00:53:57;19.80;99.90
23803;DHT22;12082;51.786;6.018;2023-08-12T00:56:24;19.80;99.90
23803;DHT22;12082;51.786;6.018;2023-08-12T00:58:50;19.80;99.90
23803;DHT22;12082;51.786;6.018;2023-08-12T01:01:15;19.80;99.90
23803;DHT22;12082;51.786;6.018;2023-08-12T01:03:43;19.80;99.90
23803;DHT22;12082;51.786;6.018;2023-08-12T01:06:08;19.80;99.90
23803;DHT22;12082;51.786;6.018;2023-08-12T01:08:35;19.70;99.90
23803;DHT22;12082;51.786;6.018;2023-08-12T01:11:14;19.80;99.90
23803;DHT22;12082;51.786;6.018;2023-08-12T01:16:53;19.80;99.90
23803;DHT22;12082;51.786;6.018;2023-08-12T01:19:39;19.70;99.90
23803;DHT22;12082;51.786;6.018;2023-08-12T01:22:08;19.70;99.90
23803;DHT22;12082;51.786;6.018;2023-08-12T01:24:35;19.80;99.90
23803;DHT22;12082;51.786;6.018;2023-08-12T01:27:01;19.80;99.90
23803;DHT22;12082;51.786;6.018;2023-08-12T01:29:27;19.80;99.90
23803;DHT22;12082;51.786;6.018;2023-08-12T01:32:05;19.90;99.90
23803;DHT22;12082;51.786;6.018;2023-08-12T01:37:08;20.00;99.90
23803;DHT22;12082;51.786;6.018;2023-08-12T01:39:35;20.00;99.90
23803;DHT22;12082;51.786;6.018;2023-08-12T01:42:02;20.00;99.90
23803;DHT22;12082;51.786;6.018;2023-08-12T01:44:28;19.90;99.90
23803;DHT22;12082;51.786;6.018;2023-08-12T01:46:54;19.90;99.90
23803;DHT22;12082;51.786;6.018;2023-08-12T01:49:20;20.00;99.90
23803;DHT22;12082;51.786;6.018;2023-08-12T01:51:45;20.00;99.90
23803;DHT22;12082;51.786;6.018;2023-08-12T01:54:11;20.00;99.90
23803;DHT22;12082;51.786;6.018;2023-08-12T01:56:36;19.90;99.90
23803;DHT22;12082;51.786;6.018;2023-08-12T01:59:02;19.90;99.90
23803;DHT22;12082;51.786;6.018;2023-08-12T02:01:28;19.90;99.90
23803;DHT22;12082;51.786;6.018;2023-08-12T02:03:53;19.90;99.90
23803;DHT22;12082;51.786;6.018;2023-08-12T02:06:19;19.90;99.90
23803;DHT22;12082;51.786;6.018;2023-08-12T02:08:45;19.90;99.90
23803;DHT22;12082;51.786;6.018;2023-08-12T02:11:10;19.80;99.90
23803;DHT22;12082;51.786;6.018;2023-08-12T02:13:36;19.90;99.90
23803;DHT22;12082;51.786;6.018;2023-08-12T02:16:01;19.90;99.90
23803;DHT22;12082;51.786;6.018;2023-08-12T02:18:27;19.90;99.90
23803;DHT22;12082;51.786;6.018;2023-08-12T02:20:52;19.90;99.90
23803;DHT22;12082;51.786;6.018;2023-08-12T02:23:18;19.90;99.90
23803;DHT22;12082;51.786;6.018;2023-08-12T02:25:43;19.90;99.90
23803;DHT22;12082;51.786;6.018;2023-08-12T02:28:10;19.90;99.90
23803;DHT22;12082;51.786;6.018;2023-08-12T02:30:35;19.90;99.90
23803;DHT22;12082;51.786;6.018;2023-08-12T02:33:01;19.90;99.90
23803;DHT22;12082;51.786;6.018;2023-08-12T02:35:27;20.00;99.90
23803;DHT22;12082;51.786;6.018;2023-08-12T02:37:52;19.90;99.90
23803;DHT22;12082;51.786;6.018;2023-08-12T02:40:18;19.90;99.90
23803;DHT22;12082;51.786;6.018;2023-08-12T02:42:43;19.90;99.90
23803;DHT22;12082;51.786;6.018;2023-08-12T02:45:09;19.90;99.90
23803;DHT22;12082;51.786;6.018;2023-08-12T02:47:35;19.90;99.90
23803;DHT22;12082;51.786;6.018;2023-08-12T02:50:00;19.90;99.90
23803;DHT22;12082;51.786;6.018;2023-08-12T02:52:26;19.90;99.90
23803;DHT22;12082;51.786;6.018;2023-08-12T02:54:51;19.90;99.90
23803;DHT22;12082;51.786;6.018;2023-08-12T02:57:17;19.90;99.90
23803;DHT22;12082;51.786;6.018;2023-08-12T02:59:42;19.80;99.90
23803;DHT22;12082;51.786;6.018;2023-08-12T03:02:08;19.80;99.90
23803;DHT22;12082;51.786;6.018;2023-08-12T03:04:34;19.80;99.90
23803;DHT22;12082;51.786;6.018;2023-08-12T03:06:59;19.80;99.90
23803;DHT22;12082;51.786;6.018;2023-08-12T03:09:25;19.80;99.90
23803;DHT22;12082;51.786;6.018;2023-08-12T03:11:50;19.80;99.90
23803;DHT22;12082;51.786;6.018;2023-08-12T03:14:16;19.80;99.90
23803;DHT22;12082;51.786;6.018;2023-08-12T03:16:41;19.80;99.90
23803;DHT22;12082;51.786;6.018;2023-08-12T03:19:07;19.80;99.90
23803;DHT22;12082;51.786;6.018;2023-08-12T03:21:32;19.80;99.90
23803;DHT22;12082;51.786;6.018;2023-08-12T03:23:59;19.90;99.90
23803;DHT22;12082;51.786;6.018;2023-08-12T03:26:25;19.80;99.90
23803;DHT22;12082;51.786;6.018;2023-08-12T03:28:51;19.90;99.90
23803;DHT22;12082;51.786;6.018;2023-08-12T03:31:16;19.80;99.90
23803;DHT22;12082;51.786;6.018;2023-08-12T03:33:42;19.90;99.90
23803;DHT22;12082;51.786;6.018;2023-08-12T03:36:09;19.90;99.90
23803;DHT22;12082;51.786;6.018;2023-08-12T03:38:34;19.90;99.90
23803;DHT22;12082;51.786;6.018;2023-08-12T03:41:01;19.90;99.90
23803;DHT22;12082;51.786;6.018;2023-08-12T03:43:27;19.90;99.90
23803;DHT22;12082;51.786;6.018;2023-08-12T03:45:53;19.90;99.90
23803;DHT22;12082;51.786;6.018;2023-08-12T03:48:18;20.00;99.90
23803;DHT22;12082;51.786;6.018;2023-08-12T03:50:44;19.90;99.90
23803;DHT22;12082;51.786;6.018;2023-08-12T03:53:12;19.90;99.90
23803;DHT22;12082;51.786;6.018;2023-08-12T03:55:37;20.00;99.90
23803;DHT22;12082;51.786;6.018;2023-08-12T03:58:03;19.90;99.90
23803;DHT22;12082;51.786;6.018;2023-08-12T04:00:29;20.00;99.90
23803;DHT22;12082;51.786;6.018;2023-08-12T04:02:54;20.10;99.90
23803;DHT22;12082;51.786;6.018;2023-08-12T04:05:20;20.00;99.90
23803;DHT22;12082;51.786;6.018;2023-08-12T04:07:45;20.00;99.90
23803;DHT22;12082;51.786;6.018;2023-08-12T04:10:11;20.00;99.90
23803;DHT22;12082;51.786;6.018;2023-08-12T04:12:37;20.00;99.90
23803;DHT22;12082;51.786;6.018;2023-08-12T04:15:03;20.00;99.90
23803;DHT22;12082;51.786;6.018;2023-08-12T04:17:31;20.00;99.90
23803;DHT22;12082;51.786;6.018;2023-08-12T04:19:56;20.00;99.90
23803;DHT22;12082;51.786;6.018;2023-08-12T04:22:22;20.00;99.90
23803;DHT22;12082;51.786;6.018;2023-08-12T04:24:47;19.90;99.90
23803;DHT22;12082;51.786;6.018;2023-08-12T04:27:13;20.00;99.90
23803;DHT22;12082;51.786;6.018;2023-08-12T04:29:38;20.00;99.90
23803;DHT22;12082;51.786;6.018;2023-08-12T04:32:04;20.00;99.90
23803;DHT22;12082;51.786;6.018;2023-08-12T04:34:30;20.00;99.90
23803;DHT22;12082;51.786;6.018;2023-08-12T04:36:55;20.00;99.90
23803;DHT22;12082;51.786;6.018;2023-08-12T04:39:21;20.00;99.90
23803;DHT22;12082;51.786;6.018;2023-08-12T04:41:48;20.00;99.90
23803;DHT22;12082;51.786;6.018;2023-08-12T04:44:13;20.00;99.90
23803;DHT22;12082;51.786;6.018;2023-08-12T04:46:39;20.00;99.90
23803;DHT22;12082;51.786;6.018;2023-08-12T04:49:05;20.00;99.90
23803;DHT22;12082;51.786;6.018;2023-08-12T04:51:30;20.00;99.90
23803;DHT22;12082;51.786;6.018;2023-08-12T04:53:56;20.10;99.90
23803;DHT22;12082;51.786;6.018;2023-08-12T04:56:22;20.10;99.90
23803;DHT22;12082;51.786;6.018;2023-08-12T04:58:48;20.10;99.90
23803;DHT22;12082;51.786;6.018;2023-08-12T05:01:14;20.10;99.90
23803;DHT22;12082;51.786;6.018;2023-08-12T05:03:39;20.20;99.90
23803;DHT22;12082;51.786;6.018;2023-08-12T05:06:05;20.10;99.90
23803;DHT22;12082;51.786;6.018;2023-08-12T05:08:30;20.20;99.90
23803;DHT22;12082;51.786;6.018;2023-08-12T05:10:56;20.20;99.90
23803;DHT22;12082;51.786;6.018;2023-08-12T05:13:22;20.10;99.90
23803;DHT22;12082;51.786;6.018;2023-08-12T05:15:49;20.10;99.90
23803;DHT22;12082;51.786;6.018;2023-08-12T05:18:15;20.00;99.90
23803;DHT22;12082;51.786;6.018;2023-08-12T05:20:40;20.00;99.90
23803;DHT22;12082;51.786;6.018;2023-08-12T05:23:07;20.10;99.90
23803;DHT22;12082;51.786;6.018;2023-08-12T05:25:32;20.00;99.90
23803;DHT22;12082;51.786;6.018;2023-08-12T05:27:58;20.00;99.90
23803;DHT22;12082;51.786;6.018;2023-08-12T05:30:24;19.90;99.90
23803;DHT22;12082;51.786;6.018;2023-08-12T05:32:50;19.90;99.90
23803;DHT22;12082;51.786;6.018;2023-08-12T05:35:15;19.80;99.90
23803;DHT22;12082;51.786;6.018;2023-08-12T05:37:41;19.70;99.90
23803;DHT22;12082;51.786;6.018;2023-08-12T05:40:08;19.60;99.90
23803;DHT22;12082;51.786;6.018;2023-08-12T05:42:35;19.60;99.90
23803;DHT22;12082;51.786;6.018;2023-08-12T05:45:00;19.70;99.90
23803;DHT22;12082;51.786;6.018;2023-08-12T05:47:26;19.60;99.90
23803;DHT22;12082;51.786;6.018;2023-08-12T05:49:51;19.60;99.90
23803;DHT22;12082;51.786;6.018;2023-08-12T05:52:17;19.60;99.90
23803;DHT22;12082;51.786;6.018;2023-08-12T05:54:42;19.60;99.90
23803;DHT22;12082;51.786;6.018;2023-08-12T05:57:08;19.50;99.90
23803;DHT22;12082;51.786;6.018;2023-08-12T05:59:33;19.50;99.90
23803;DHT22;12082;51.786;6.018;2023-08-12T06:01:59;19.40;99.90
23803;DHT22;12082;51.786;6.018;2023-08-12T06:04:24;19.50;99.90
23803;DHT22;12082;51.786;6.018;2023-08-12T06:06:50;19.40;99.90
23803;DHT22;12082;51.786;6.018;2023-08-12T06:09:16;19.40;99.90
23803;DHT22;12082;51.786;6.018;2023-08-12T06:11:41;19.40;99.90
23803;DHT22;12082;51.786;6.018;2023-08-12T06:14:07;19.40;99.90
23803;DHT22;12082;51.786;6.018;2023-08-12T06:16:32;19.30;99.90
23803;DHT22;12082;51.786;6.018;2023-08-12T06:18:59;19.30;99.90
23803;DHT22;12082;51.786;6.018;2023-08-12T06:21:24;19.30;99.90
23803;DHT22;12082;51.786;6.018;2023-08-12T06:23:50;19.40;99.90
23803;DHT22;12082;51.786;6.018;2023-08-12T06:26:15;19.10;99.90
23803;DHT22;12082;51.786;6.018;2023-08-12T06:28:41;19.10;99.90
23803;DHT22;12082;51.786;6.018;2023-08-12T06:31:06;19.10;99.90
23803;DHT22;12082;51.786;6.018;2023-08-12T06:33:32;19.00;99.90
23803;DHT22;12082;51.786;6.018;2023-08-12T06:35:57;19.10;99.90
23803;DHT22;12082;51.786;6.018;2023-08-12T06:38:23;18.90;99.90
23803;DHT22;12082;51.786;6.018;2023-08-12T06:40:48;19.00;99.90
23803;DHT22;12082;51.786;6.018;2023-08-12T06:43:14;19.00;99.90
23803;DHT22;12082;51.786;6.018;2023-08-12T06:45:39;19.00;99.90
23803;DHT22;12082;51.786;6.018;2023-08-12T06:48:05;18.90;99.90
23803;DHT22;12082;51.786;6.018;2023-08-12T06:50:31;18.90;99.90
23803;DHT22;12082;51.786;6.018;2023-08-12T06:52:58;18.90;99.90
23803;DHT22;12082;51.786;6.018;2023-08-12T06:55:24;18.80;99.90
23803;DHT22;12082;51.786;6.018;2023-08-12T06:57:49;18.90;99.90
23803;DHT22;12082;51.786;6.018;2023-08-12T07:00:15;19.00;99.90
23803;DHT22;12082;51.786;6.018;2023-08-12T07:02:40;19.00;99.90
23803;DHT22;12082;51.786;6.018;2023-08-12T07:05:08;18.80;99.90
23803;DHT22;12082;51.786;6.018;2023-08-12T07:07:33;19.10;99.90
23803;DHT22;12082;51.786;6.018;2023-08-12T07:09:59;19.00;99.90
23803;DHT22;12082;51.786;6.018;2023-08-12T07:12:25;19.10;99.90
23803;DHT22;12082;51.786;6.018;2023-08-12T07:14:50;19.20;99.90
23803;DHT22;12082;51.786;6.018;2023-08-12T07:17:16;19.00;99.90
23803;DHT22;12082;51.786;6.018;2023-08-12T07:19:41;19.20;99.90
23803;DHT22;12082;51.786;6.018;2023-08-12T07:22:07;19.10;99.90
23803;DHT22;12082;51.786;6.018;2023-08-12T07:24:33;18.90;99.90
23803;DHT22;12082;51.786;6.018;2023-08-12T07:26:58;19.00;99.90
23803;DHT22;12082;51.786;6.018;2023-08-12T07:29:24;19.10;99.90
23803;DHT22;12082;51.786;6.018;2023-08-12T07:31:49;19.20;99.90
23803;DHT22;12082;51.786;6.018;2023-08-12T07:34:15;19.20;99.90
23803;DHT22;12082;51.786;6.018;2023-08-12T07:36:40;19.20;99.90
23803;DHT22;12082;51.786;6.018;2023-08-12T07:39:07;19.30;99.90
23803;DHT22;12082;51.786;6.018;2023-08-12T07:41:32;19.40;99.90
23803;DHT22;12082;51.786;6.018;2023-08-12T07:43:58;19.40;99.90
23803;DHT22;12082;51.786;6.018;2023-08-12T07:46:24;19.50;99.90
23803;DHT22;12082;51.786;6.018;2023-08-12T07:48:49;19.60;99.90
23803;DHT22;12082;51.786;6.018;2023-08-12T07:51:15;19.90;99.90
23803;DHT22;12082;51.786;6.018;2023-08-12T07:53:40;19.90;99.90
23803;DHT22;12082;51.786;6.018;2023-08-12T07:56:06;19.90;99.90
23803;DHT22;12082;51.786;6.018;2023-08-12T07:58:32;19.80;99.90
23803;DHT22;12082;51.786;6.018;2023-08-12T08:00:57;19.90;99.90
23803;DHT22;12082;51.786;6.018;2023-08-12T08:03:23;20.00;99.90
23803;DHT22;12082;51.786;6.018;2023-08-12T08:05:48;20.10;99.90
23803;DHT22;12082;51.786;6.018;2023-08-12T08:08:14;20.20;99.90
23803;DHT22;12082;51.786;6.018;2023-08-12T08:10:40;20.20;99.90
23803;DHT22;12082;51.786;6.018;2023-08-12T08:13:05;20.30;99.90
23803;DHT22;12082;51.786;6.018;2023-08-12T08:15:31;20.20;99.90
23803;DHT22;12082;51.786;6.018;2023-08-12T08:17:56;20.00;99.90
23803;DHT22;12082;51.786;6.018;2023-08-12T08:20:22;20.10;99.90
23803;DHT22;12082;51.786;6.018;2023-08-12T08:22:48;20.00;99.90
23803;DHT22;12082;51.786;6.018;2023-08-12T08:25:14;20.00;99.90
23803;DHT22;12082;51.786;6.018;2023-08-12T08:27:39;20.10;99.90
23803;DHT22;12082;51.786;6.018;2023-08-12T08:30:06;20.30;99.90
23803;DHT22;12082;51.786;6.018;2023-08-12T08:32:32;20.30;99.90
23803;DHT22;12082;51.786;6.018;2023-08-12T08:34:58;20.30;99.90
23803;DHT22;12082;51.786;6.018;2023-08-12T08:37:23;20.30;99.90
23803;DHT22;12082;51.786;6.018;2023-08-12T08:39:49;20.20;99.90
23803;DHT22;12082;51.786;6.018;2023-08-12T08:42:15;20.20;99.90
23803;DHT22;12082;51.786;6.018;2023-08-12T08:44:44;20.20;99.90
23803;DHT22;12082;51.786;6.018;2023-08-12T08:47:11;20.00;99.90
23803;DHT22;12082;51.786;6.018;2023-08-12T08:49:38;20.10;99.90
23803;DHT22;12082;51.786;6.018;2023-08-12T08:52:05;20.00;99.90
23803;DHT22;12082;51.786;6.018;2023-08-12T08:54:31;20.00;99.90
23803;DHT22;12082;51.786;6.018;2023-08-12T08:56:56;20.20;99.90
23803;DHT22;12082;51.786;6.018;2023-08-12T08:59:22;20.20;99.90
23803;DHT22;12082;51.786;6.018;2023-08-12T09:01:49;20.20;99.90
23803;DHT22;12082;51.786;6.018;2023-08-12T09:04:16;20.20;99.90
23803;DHT22;12082;51.786;6.018;2023-08-12T09:06:43;20.10;99.90
23803;DHT22;12082;51.786;6.018;2023-08-12T09:09:13;20.00;99.90
23803;DHT22;12082;51.786;6.018;2023-08-12T09:11:40;20.00;99.90
23803;DHT22;12082;51.786;6.018;2023-08-12T09:14:06;20.10;99.90
23803;DHT22;12082;51.786;6.018;2023-08-12T09:16:32;20.20;99.90
23803;DHT22;12082;51.786;6.018;2023-08-12T09:18:58;20.30;99.90
23803;DHT22;12082;51.786;6.018;2023-08-12T09:21:24;20.50;99.90
23803;DHT22;12082;51.786;6.018;2023-08-12T09:23:49;20.60;99.90
23803;DHT22;12082;51.786;6.018;2023-08-12T09:26:19;20.60;99.90
23803;DHT22;12082;51.786;6.018;2023-08-12T09:28:46;20.40;99.90
23803;DHT22;12082;51.786;6.018;2023-08-12T09:31:26;20.50;99.90
23803;DHT22;12082;51.786;6.018;2023-08-12T09:33:52;20.50;99.90
23803;DHT22;12082;51.786;6.018;2023-08-12T09:36:18;20.50;99.90
23803;DHT22;12082;51.786;6.018;2023-08-12T09:38:46;20.50;99.90
23803;DHT22;12082;51.786;6.018;2023-08-12T09:41:12;20.30;99.90
23803;DHT22;12082;51.786;6.018;2023-08-12T09:43:42;20.20;99.90
23803;DHT22;12082;51.786;6.018;2023-08-12T09:46:11;20.10;99.90
23803;DHT22;12082;51.786;6.018;2023-08-12T09:48:38;20.10;99.90
23803;DHT22;12082;51.786;6.018;2023-08-12T09:51:03;20.00;99.90
23803;DHT22;12082;51.786;6.018;2023-08-12T09:53:29;20.20;99.90
23803;DHT22;12082;51.786;6.018;2023-08-12T09:55:57;20.30;99.90
23803;DHT22;12082;51.786;6.018;2023-08-12T09:58:25;20.30;99.90
23803;DHT22;12082;51.786;6.018;2023-08-12T10:00:54;20.50;99.90
23803;DHT22;12082;51.786;6.018;2023-08-12T10:03:20;20.50;99.90
23803;DHT22;12082;51.786;6.018;2023-08-12T10:05:47;20.60;99.90
23803;DHT22;12082;51.786;6.018;2023-08-12T10:08:14;20.90;99.90
23803;DHT22;12082;51.786;6.018;2023-08-12T10:10:39;20.80;99.90
23803;DHT22;12082;51.786;6.018;2023-08-12T10:13:06;20.90;99.90
23803;DHT22;12082;51.786;6.018;2023-08-12T10:15:33;20.70;99.90
23803;DHT22;12082;51.786;6.018;2023-08-12T10:17:59;21.00;99.90
23803;DHT22;12082;51.786;6.018;2023-08-12T10:20:25;20.90;99.90
23803;DHT22;12082;51.786;6.018;2023-08-12T10:22:52;21.10;99.90
23803;DHT22;12082;51.786;6.018;2023-08-12T10:25:19;21.20;99.90
23803;DHT22;12082;51.786;6.018;2023-08-12T10:27:49;20.60;99.90
23803;DHT22;12082;51.786;6.018;2023-08-12T10:30:15;20.70;99.90
23803;DHT22;12082;51.786;6.018;2023-08-12T10:32:41;20.70;99.90
23803;DHT22;12082;51.786;6.018;2023-08-12T10:35:07;20.60;99.90
23803;DHT22;12082;51.786;6.018;2023-08-12T10:37:38;20.70;99.90
23803;DHT22;12082;51.786;6.018;2023-08-12T10:40:22;20.90;99.90
23803;DHT22;12082;51.786;6.018;2023-08-12T10:42:49;20.90;99.90
23803;DHT22;12082;51.786;6.018;2023-08-12T10:45:16;21.00;99.90
23803;DHT22;12082;51.786;6.018;2023-08-12T10:48:15;21.00;99.90
23803;DHT22;12082;51.786;6.018;2023-08-12T10:50:44;21.00;99.90
23803;DHT22;12082;51.786;6.018;2023-08-12T10:53:37;21.00;99.90
23803;DHT22;12082;51.786;6.018;2023-08-12T10:56:04;21.00;99.90
23803;DHT22;12082;51.786;6.018;2023-08-12T10:58:44;21.20;99.90
23803;DHT22;12082;51.786;6.018;2023-08-12T11:01:16;21.10;99.90
23803;DHT22;12082;51.786;6.018;2023-08-12T11:03:43;21.10;99.90
23803;DHT22;12082;51.786;6.018;2023-08-12T11:06:12;21.30;99.90
23803;DHT22;12082;51.786;6.018;2023-08-12T11:08:46;20.30;99.90
23803;DHT22;12082;51.786;6.018;2023-08-12T11:11:25;21.20;99.90
23803;DHT22;12082;51.786;6.018;2023-08-12T11:13:56;21.30;99.90
23803;DHT22;12082;51.786;6.018;2023-08-12T11:16:35;21.60;99.90
23803;DHT22;12082;51.786;6.018;2023-08-12T11:19:01;22.60;99.90
23803;DHT22;12082;51.786;6.018;2023-08-12T11:21:27;21.70;99.90
23803;DHT22;12082;51.786;6.018;2023-08-12T11:23:55;21.70;99.90
23803;DHT22;12082;51.786;6.018;2023-08-12T11:26:23;21.60;99.90
23803;DHT22;12082;51.786;6.018;2023-08-12T11:28:49;21.70;99.90
23803;DHT22;12082;51.786;6.018;2023-08-12T11:31:15;21.90;99.90
23803;DHT22;12082;51.786;6.018;2023-08-12T11:33:41;22.10;99.90
23803;DHT22;12082;51.786;6.018;2023-08-12T11:36:07;21.90;99.90
23803;DHT22;12082;51.786;6.018;2023-08-12T11:38:32;21.90;99.90
23803;DHT22;12082;51.786;6.018;2023-08-12T11:41:00;21.70;99.90
23803;DHT22;12082;51.786;6.018;2023-08-12T11:43:28;21.70;99.90
23803;DHT22;12082;51.786;6.018;2023-08-12T11:45:55;21.90;99.90
23803;DHT22;12082;51.786;6.018;2023-08-12T11:48:22;22.10;99.90
23803;DHT22;12082;51.786;6.018;2023-08-12T11:50:49;22.50;99.90
23803;DHT22;12082;51.786;6.018;2023-08-12T11:53:15;22.60;99.90
23803;DHT22;12082;51.786;6.018;2023-08-12T11:55:40;22.60;99.90
23803;DHT22;12082;51.786;6.018;2023-08-12T11:58:06;21.90;99.90
23803;DHT22;12082;51.786;6.018;2023-08-12T12:00:33;22.70;99.90
23803;DHT22;12082;51.786;6.018;2023-08-12T12:02:58;22.60;99.90
23803;DHT22;12082;51.786;6.018;2023-08-12T12:05:27;22.70;99.90
23803;DHT22;12082;51.786;6.018;2023-08-12T12:07:53;22.60;99.90
23803;DHT22;12082;51.786;6.018;2023-08-12T12:10:20;22.60;99.90
23803;DHT22;12082;51.786;6.018;2023-08-12T12:12:47;22.30;99.90
23803;DHT22;12082;51.786;6.018;2023-08-12T12:15:14;22.40;99.90
23803;DHT22;12082;51.786;6.018;2023-08-12T12:17:45;22.70;99.90
23803;DHT22;12082;51.786;6.018;2023-08-12T12:20:11;23.10;99.90
23803;DHT22;12082;51.786;6.018;2023-08-12T12:22:37;23.30;99.90
23803;DHT22;12082;51.786;6.018;2023-08-12T12:25:07;23.30;99.90
23803;DHT22;12082;51.786;6.018;2023-08-12T12:27:33;23.50;99.90
23803;DHT22;12082;51.786;6.018;2023-08-12T12:30:00;23.50;99.90
23803;DHT22;12082;51.786;6.018;2023-08-12T12:32:26;23.70;99.90
23803;DHT22;12082;51.786;6.018;2023-08-12T12:34:52;23.30;99.90
23803;DHT22;12082;51.786;6.018;2023-08-12T12:37:18;23.20;99.90
23803;DHT22;12082;51.786;6.018;2023-08-12T12:39:44;23.20;99.90
23803;DHT22;12082;51.786;6.018;2023-08-12T12:42:10;23.40;99.90
23803;DHT22;12082;51.786;6.018;2023-08-12T12:44:35;23.10;99.90
23803;DHT22;12082;51.786;6.018;2023-08-12T12:47:02;23.10;99.90
23803;DHT22;12082;51.786;6.018;2023-08-12T12:49:28;23.10;99.90
23803;DHT22;12082;51.786;6.018;2023-08-12T12:51:53;23.40;99.90
23803;DHT22;12082;51.786;6.018;2023-08-12T12:54:19;23.60;99.90
23803;DHT22;12082;51.786;6.018;2023-08-12T12:56:45;23.70;99.90
23803;DHT22;12082;51.786;6.018;2023-08-12T12:59:10;23.70;99.90
23803;DHT22;12082;51.786;6.018;2023-08-12T13:01:36;23.50;99.90
23803;DHT22;12082;51.786;6.018;2023-08-12T13:04:02;23.40;99.90
23803;DHT22;12082;51.786;6.018;2023-08-12T13:06:28;22.90;99.90
23803;DHT22;12082;51.786;6.018;2023-08-12T13:08:54;22.90;99.90
23803;DHT22;12082;51.786;6.018;2023-08-12T13:11:19;23.10;99.90
23803;DHT22;12082;51.786;6.018;2023-08-12T13:13:45;23.30;99.90
23803;DHT22;12082;51.786;6.018;2023-08-12T13:16:10;23.50;99.90
23803;DHT22;12082;51.786;6.018;2023-08-12T13:18:36;23.60;99.90
23803;DHT22;12082;51.786;6.018;2023-08-12T13:21:01;23.70;99.90
23803;DHT22;12082;51.786;6.018;2023-08-12T13:23:27;24.10;99.90
23803;DHT22;12082;51.786;6.018;2023-08-12T13:25:53;24.20;99.90
23803;DHT22;12082;51.786;6.018;2023-08-12T13:28:18;24.00;99.90
23803;DHT22;12082;51.786;6.018;2023-08-12T13:30:45;24.00;99.90
23803;DHT22;12082;51.786;6.018;2023-08-12T13:33:11;24.30;99.90
23803;DHT22;12082;51.786;6.018;2023-08-12T13:35:37;24.40;99.90
23803;DHT22;12082;51.786;6.018;2023-08-12T13:38:03;24.30;99.90
23803;DHT22;12082;51.786;6.018;2023-08-12T13:40:28;24.30;99.90
23803;DHT22;12082;51.786;6.018;2023-08-12T13:42:54;24.10;99.90
23803;DHT22;12082;51.786;6.018;2023-08-12T13:45:20;24.40;99.90
23803;DHT22;12082;51.786;6.018;2023-08-12T13:47:46;24.50;99.90
23803;DHT22;12082;51.786;6.018;2023-08-12T13:50:11;24.90;99.90
23803;DHT22;12082;51.786;6.018;2023-08-12T13:52:39;24.70;99.90
23803;DHT22;12082;51.786;6.018;2023-08-12T13:55:05;25.20;99.90
23803;DHT22;12082;51.786;6.018;2023-08-12T13:57:31;25.30;99.90
23803;DHT22;12082;51.786;6.018;2023-08-12T13:59:56;25.10;99.90
23803;DHT22;12082;51.786;6.018;2023-08-12T14:02:22;25.30;99.90
23803;DHT22;12082;51.786;6.018;2023-08-12T14:04:48;25.50;99.90
23803;DHT22;12082;51.786;6.018;2023-08-12T14:07:14;25.70;99.90
23803;DHT22;12082;51.786;6.018;2023-08-12T14:09:40;25.80;99.90
23803;DHT22;12082;51.786;6.018;2023-08-12T14:12:06;25.90;99.90
23803;DHT22;12082;51.786;6.018;2023-08-12T14:14:32;26.10;99.90
23803;DHT22;12082;51.786;6.018;2023-08-12T14:16:57;26.10;99.90
23803;DHT22;12082;51.786;6.018;2023-08-12T14:19:23;25.90;99.90
23803;DHT22;12082;51.786;6.018;2023-08-12T14:21:48;25.90;99.90
23803;DHT22;12082;51.786;6.018;2023-08-12T14:24:14;25.60;99.90
23803;DHT22;12082;51.786;6.018;2023-08-12T14:26:39;25.30;99.90
23803;DHT22;12082;51.786;6.018;2023-08-12T14:29:05;24.90;99.90
23803;DHT22;12082;51.786;6.018;2023-08-12T14:31:31;24.50;99.90
23803;DHT22;12082;51.786;6.018;2023-08-12T14:33:57;24.00;99.90
23803;DHT22;12082;51.786;6.018;2023-08-12T14:36:23;24.10;99.90
23803;DHT22;12082;51.786;6.018;2023-08-12T14:38:50;24.40;99.90
23803;DHT22;12082;51.786;6.018;2023-08-12T14:41:15;24.70;99.90
23803;DHT22;12082;51.786;6.018;2023-08-12T14:43:41;24.90;99.90
23803;DHT22;12082;51.786;6.018;2023-08-12T14:46:06;25.10;99.90
23803;DHT22;12082;51.786;6.018;2023-08-12T14:48:32;25.30;99.90
23803;DHT22;12082;51.786;6.018;2023-08-12T14:50:57;25.50;99.90
23803;DHT22;12082;51.786;6.018;2023-08-12T14:53:25;25.50;99.90
23803;DHT22;12082;51.786;6.018;2023-08-12T14:55:51;25.60;99.90
23803;DHT22;12082;51.786;6.018;2023-08-12T14:58:16;25.90;99.90
23803;DHT22;12082;51.786;6.018;2023-08-12T15:00:42;26.20;99.90
23803;DHT22;12082;51.786;6.018;2023-08-12T15:03:07;26.60;99.90
23803;DHT22;12082;51.786;6.018;2023-08-12T15:05:33;27.00;99.90
23803;DHT22;12082;51.786;6.018;2023-08-12T15:07:58;27.50;99.90
23803;DHT22;12082;51.786;6.018;2023-08-12T15:10:24;27.80;99.90
23803;DHT22;12082;51.786;6.018;2023-08-12T15:12:49;27.60;99.90
23803;DHT22;12082;51.786;6.018;2023-08-12T15:15:15;26.60;99.90
23803;DHT22;12082;51.786;6.018;2023-08-12T15:17:41;25.60;99.90
23803;DHT22;12082;51.786;6.018;2023-08-12T15:20:07;25.90;99.90
23803;DHT22;12082;51.786;6.018;2023-08-12T15:22:35;26.60;99.90
23803;DHT22;12082;51.786;6.018;2023-08-12T15:25:01;26.90;99.90
23803;DHT22;12082;51.786;6.018;2023-08-12T15:27:27;27.40;99.90
23803;DHT22;12082;51.786;6.018;2023-08-12T15:29:52;27.80;99.90